Time;durP1;ratioP1;P1;durP2;ratioP2;P2;SDS_P1;SDS_P2;PMS_P1;PMS_P2;Temp;Humidity;BMP_temperature;BMP_pressure;BME280_temperature;BME280_humidity;BME280_pressure;Samples;Min_cycle;Max_cycle;Signal;HPM_P1;HPM_P2
2022/03/18 00:02:09;;;;;;;72.95;51.22;;;17.00;52.00;;;;;;4998297;28;90430;-77
2022/03/18 00:04:34;;;;;;;71.90;51.15;;;17.00;52.10;;;;;;4986924;28;89870;-77
2022/03/18 00:07:00;;;;;;;71.93;51.10;;;16.90;52.10;;;;;;4999478;28;89930;-77
2022/03/18 00:09:26;;;;;;;71.82;51.08;;;16.90;52.10;;;;;;5001609;28;90044;-77
2022/03/18 00:11:52;;;;;;;71.43;50.95;;;16.90;52.20;;;;;;4998270;28;94489;-77
2022/03/18 00:14:19;;;;;;;72.50;51.03;;;16.90;52.20;;;;;;4993405;28;91054;-77
2022/03/18 00:16:45;;;;;;;71.68;51.25;;;16.80;52.20;;;;;;4997584;28;90304;-76
2022/03/18 00:19:11;;;;;;;71.40;51.38;;;16.80;52.30;;;;;;4988404;28;90199;-77
2022/03/18 00:21:37;;;;;;;71.28;51.00;;;16.80;52.00;;;;;;4996060;28;91196;-78
2022/03/18 00:24:03;;;;;;;72.85;51.13;;;16.80;52.40;;;;;;4986524;28;89846;-77
2022/03/18 00:26:29;;;;;;;71.88;51.22;;;16.70;52.20;;;;;;4986598;28;89521;-77
2022/03/18 00:28:55;;;;;;;70.82;50.20;;;16.70;52.40;;;;;;4988846;28;95626;-77
2022/03/18 00:31:21;;;;;;;69.95;50.53;;;16.70;52.40;;;;;;4995589;28;89454;-77
2022/03/18 00:33:47;;;;;;;70.53;50.67;;;16.70;52.40;;;;;;4996458;28;89817;-77
2022/03/18 00:36:12;;;;;;;70.97;50.78;;;16.70;52.50;;;;;;4994621;28;90138;-77
2022/03/18 00:38:39;;;;;;;70.03;50.63;;;16.60;52.50;;;;;;4987892;28;92513;-77
2022/03/18 00:41:05;;;;;;;70.72;50.75;;;16.60;52.40;;;;;;4988391;28;91205;-77
2022/03/18 00:43:30;;;;;;;71.55;50.78;;;16.60;52.50;;;;;;4994348;28;90197;-77
2022/03/18 00:45:56;;;;;;;70.22;50.53;;;16.60;52.50;;;;;;4989599;28;90461;-77
2022/03/18 00:53:52;;;;;;;70.85;50.72;;;16.50;52.50;;;;;;4983142;28;91083;-77
2022/03/18 00:56:17;;;;;;;70.70;50.72;;;16.50;52.50;;;;;;4982541;27;88830;-77
2022/03/18 00:58:43;;;;;;;69.85;50.75;;;16.40;52.50;;;;;;4985623;28;89961;-77
2022/03/18 01:01:09;;;;;;;70.63;50.97;;;16.40;52.70;;;;;;4988660;28;89821;-77
2022/03/18 01:03:34;;;;;;;70.20;50.63;;;16.40;52.50;;;;;;4993353;28;91093;-77
2022/03/18 01:06:00;;;;;;;69.93;50.67;;;16.40;52.60;;;;;;4990510;28;92305;-77
2022/03/18 01:08:26;;;;;;;69.32;50.28;;;16.40;52.80;;;;;;5005584;28;90621;-77
2022/03/18 01:10:53;;;;;;;72.20;50.88;;;16.40;52.70;;;;;;4999264;28;90230;-77
2022/03/18 01:13:18;;;;;;;70.57;50.38;;;16.30;52.70;;;;;;4997935;28;90014;-77
2022/03/18 01:15:44;;;;;;;70.00;50.25;;;16.30;52.70;;;;;;4998709;28;89345;-77
2022/03/18 01:18:13;;;;;;;70.20;50.70;;;16.30;52.80;;;;;;4999954;28;91082;-77
2022/03/18 01:20:38;;;;;;;69.72;50.42;;;16.30;52.80;;;;;;4996477;28;89242;-77
2022/03/18 01:23:06;;;;;;;71.05;50.30;;;16.30;52.80;;;;;;4992014;28;89430;-77
2022/03/18 01:25:33;;;;;;;70.28;50.33;;;16.20;52.80;;;;;;4977992;28;90705;-77
2022/03/18 01:28:01;;;;;;;69.20;50.33;;;16.20;52.70;;;;;;4986842;28;92068;-77
2022/03/18 01:30:30;;;;;;;70.25;50.58;;;16.20;52.80;;;;;;4987601;28;93936;-77
2022/03/18 01:32:56;;;;;;;70.07;50.20;;;16.20;52.90;;;;;;4989140;28;91070;-77
2022/03/18 01:35:22;;;;;;;70.25;50.60;;;16.20;52.90;;;;;;4990137;28;89748;-77
2022/03/18 01:37:48;;;;;;;69.25;50.15;;;16.20;52.90;;;;;;4991938;28;90980;-77
2022/03/18 01:40:14;;;;;;;69.22;50.22;;;16.10;52.90;;;;;;4986459;28;90276;-77
2022/03/18 01:42:40;;;;;;;69.05;50.42;;;16.10;53.00;;;;;;4992145;28;90111;-77
2022/03/18 01:45:07;;;;;;;69.20;50.13;;;16.10;52.90;;;;;;4985554;28;90903;-77
2022/03/18 01:47:34;;;;;;;69.72;50.13;;;16.10;52.90;;;;;;4995083;28;89465;-78
2022/03/18 01:50:00;;;;;;;69.35;50.40;;;16.10;53.10;;;;;;5008493;27;93042;-77
2022/03/18 01:52:26;;;;;;;69.43;50.20;;;16.10;53.10;;;;;;4991156;28;94198;-77
2022/03/18 01:54:52;;;;;;;68.50;49.95;;;16.00;53.00;;;;;;4977818;28;94238;-76
2022/03/18 01:57:22;;;;;;;68.43;50.08;;;16.00;53.10;;;;;;4988093;28;91107;-77
2022/03/18 01:59:49;;;;;;;69.57;50.45;;;16.00;52.90;;;;;;4995202;28;89721;-77
2022/03/18 02:02:15;;;;;;;70.82;50.28;;;16.00;52.90;;;;;;4995776;27;89521;-77
2022/03/18 02:04:42;;;;;;;69.93;50.35;;;16.00;52.90;;;;;;4983720;28;89926;-77
2022/03/18 02:07:08;;;;;;;69.82;50.03;;;16.00;53.00;;;;;;4997695;28;91910;-77
2022/03/18 02:09:35;;;;;;;68.75;49.92;;;16.00;53.10;;;;;;4992359;28;91190;-77
2022/03/18 02:12:02;;;;;;;68.78;49.92;;;15.90;53.10;;;;;;4991762;28;89765;-77
2022/03/18 02:14:36;;;;;;;68.18;49.83;;;15.90;53.10;;;;;;4988621;28;90549;-77
2022/03/18 02:17:03;;;;;;;69.13;50.10;;;15.90;53.10;;;;;;4989210;28;91453;-77
2022/03/18 02:19:29;;;;;;;68.97;49.78;;;15.90;53.10;;;;;;4990384;28;90758;-77
2022/03/18 02:21:56;;;;;;;68.90;49.90;;;15.90;53.10;;;;;;4993518;28;89725;-77
2022/03/18 02:24:22;;;;;;;67.82;49.67;;;15.90;53.10;;;;;;4994388;28;94125;-77
2022/03/18 02:26:49;;;;;;;68.13;49.78;;;15.90;53.10;;;;;;4988618;28;91545;-77
2022/03/18 02:29:17;;;;;;;67.90;49.97;;;15.90;53.10;;;;;;4988876;27;95389;-77
2022/03/18 02:31:43;;;;;;;69.43;50.13;;;15.80;53.20;;;;;;4990102;28;95120;-77
2022/03/18 02:34:09;;;;;;;68.78;49.97;;;15.80;53.20;;;;;;4992128;28;89437;-78
2022/03/18 02:36:35;;;;;;;69.05;49.85;;;15.80;53.00;;;;;;4994188;28;90519;-77
2022/03/18 02:39:01;;;;;;;69.45;49.95;;;15.80;53.20;;;;;;4989041;28;91637;-77
2022/03/18 02:41:26;;;;;;;68.15;50.00;;;15.80;53.20;;;;;;4987517;28;90774;-79
2022/03/18 02:43:52;;;;;;;68.40;50.03;;;15.80;53.10;;;;;;4989050;28;89343;-78
2022/03/18 02:46:17;;;;;;;67.85;49.83;;;15.80;53.20;;;;;;4990367;28;91532;-77
2022/03/18 02:48:43;;;;;;;67.88;49.95;;;15.70;53.20;;;;;;4986133;28;89715;-77
2022/03/18 02:51:09;;;;;;;67.45;49.85;;;15.70;53.20;;;;;;4981470;28;89839;-77
2022/03/18 02:53:35;;;;;;;68.45;49.95;;;15.70;53.20;;;;;;4999299;28;90176;-77
2022/03/18 02:56:04;;;;;;;68.18;49.85;;;15.70;53.30;;;;;;4980002;28;90838;-77
2022/03/18 02:58:29;;;;;;;68.32;50.05;;;15.70;53.20;;;;;;4990540;28;93070;-77
2022/03/18 03:00:55;;;;;;;68.00;49.75;;;15.70;53.30;;;;;;4991373;28;90252;-76
2022/03/18 03:03:21;;;;;;;68.60;50.10;;;15.70;53.40;;;;;;4994683;28;89628;-77
2022/03/18 03:08:31;;;;;;;69.30;49.75;;;15.70;53.40;;;;;;4990533;28;89335;-77
2022/03/18 03:10:58;;;;;;;68.25;49.75;;;15.60;53.20;;;;;;4985498;28;89779;-77
2022/03/18 03:13:24;;;;;;;68.50;49.95;;;15.60;53.20;;;;;;4991119;28;91791;-77
2022/03/18 03:15:50;;;;;;;68.80;50.05;;;15.60;53.30;;;;;;4991400;28;97201;-77
2022/03/18 03:18:16;;;;;;;68.05;49.83;;;15.60;53.20;;;;;;4993162;28;89651;-77
2022/03/18 03:20:42;;;;;;;68.07;49.67;;;15.60;53.10;;;;;;4985822;28;89752;-77
2022/03/18 03:23:07;;;;;;;67.22;49.72;;;15.60;53.30;;;;;;4991231;28;89631;-78
2022/03/18 03:25:33;;;;;;;67.68;49.88;;;15.60;53.30;;;;;;4982979;28;90408;-77
2022/03/18 03:27:59;;;;;;;68.55;50.05;;;15.50;53.40;;;;;;4987213;28;90928;-77
2022/03/18 03:30:25;;;;;;;68.53;49.75;;;15.60;53.40;;;;;;4981832;28;92261;-77
2022/03/18 03:32:51;;;;;;;67.97;50.13;;;15.50;53.30;;;;;;4988647;28;89734;-77
2022/03/18 03:35:17;;;;;;;69.00;49.85;;;15.50;53.20;;;;;;4987923;28;89836;-77
2022/03/18 03:37:43;;;;;;;67.50;50.13;;;15.50;53.20;;;;;;4991461;28;90717;-77
2022/03/18 03:40:13;;;;;;;69.25;50.15;;;15.50;53.40;;;;;;4991785;28;89482;-77
2022/03/18 03:42:42;;;;;;;67.50;49.80;;;15.50;53.40;;;;;;4993551;28;91641;-77
2022/03/18 03:45:10;;;;;;;68.32;49.85;;;15.50;53.30;;;;;;4990118;28;93759;-77
2022/03/18 03:47:37;;;;;;;69.07;50.00;;;15.40;53.40;;;;;;4995295;28;93813;-77
2022/03/18 03:50:06;;;;;;;67.57;49.78;;;15.50;53.50;;;;;;4992995;28;89763;-77
2022/03/18 03:52:32;;;;;;;68.35;50.13;;;15.50;53.50;;;;;;4988535;28;90767;-77
2022/03/18 03:54:57;;;;;;;70.03;50.00;;;15.50;53.40;;;;;;4980830;28;92233;-77
2022/03/18 03:57:23;;;;;;;69.00;50.33;;;15.50;53.40;;;;;;4985109;28;93488;-77
2022/03/18 03:59:48;;;;;;;67.85;49.75;;;15.50;53.30;;;;;;4992403;28;91660;-77
2022/03/18 04:02:14;;;;;;;67.88;49.92;;;15.60;53.20;;;;;;4994210;28;90302;-77
2022/03/18 04:04:41;;;;;;;67.63;49.97;;;15.70;53.20;;;;;;4994005;28;90793;-77
2022/03/18 04:07:08;;;;;;;68.25;50.17;;;15.70;53.00;;;;;;4994433;28;92555;-77
2022/03/18 04:09:33;;;;;;;68.05;50.05;;;15.70;52.90;;;;;;4997042;27;90742;-77
2022/03/18 04:11:59;;;;;;;68.85;49.97;;;15.70;52.90;;;;;;4995226;28;89954;-77
2022/03/18 04:14:25;;;;;;;67.05;49.90;;;15.80;52.60;;;;;;4999482;28;90820;-77
2022/03/18 04:16:50;;;;;;;68.20;49.85;;;15.80;52.70;;;;;;4993223;28;90756;-77
2022/03/18 04:19:17;;;;;;;67.18;49.88;;;15.80;52.60;;;;;;4990930;28;90666;-77
2022/03/18 04:21:43;;;;;;;67.43;49.90;;;15.80;52.60;;;;;;4991087;28;89739;-77
2022/03/18 04:24:09;;;;;;;67.43;49.92;;;15.80;52.50;;;;;;4992134;28;92719;-77
2022/03/18 04:26:35;;;;;;;67.35;49.75;;;15.80;53.00;;;;;;4979371;28;90264;-78
2022/03/18 04:29:00;;;;;;;66.90;49.75;;;15.80;52.40;;;;;;4991319;28;89830;-77
2022/03/18 04:31:26;;;;;;;67.97;49.92;;;15.80;52.30;;;;;;4992291;28;90707;-78
2022/03/18 04:33:52;;;;;;;68.18;49.97;;;15.80;52.30;;;;;;4990695;28;92985;-77
2022/03/18 04:36:17;;;;;;;70.32;50.15;;;15.80;52.40;;;;;;4990956;28;89006;-77
2022/03/18 04:38:43;;;;;;;67.88;50.13;;;15.80;52.40;;;;;;4990838;28;90316;-77
2022/03/18 04:41:08;;;;;;;69.70;49.83;;;15.80;52.30;;;;;;4988004;28;90112;-77
2022/03/18 04:43:34;;;;;;;68.60;49.92;;;15.80;52.20;;;;;;4994253;28;91013;-77
2022/03/18 04:46:00;;;;;;;68.65;50.05;;;15.80;52.40;;;;;;4984702;28;92955;-77
2022/03/18 04:48:25;;;;;;;68.85;50.40;;;15.80;52.30;;;;;;4987112;28;90661;-77
2022/03/18 04:50:51;;;;;;;68.85;50.03;;;15.80;52.30;;;;;;4992778;28;89853;-77
2022/03/18 04:53:16;;;;;;;68.80;50.15;;;15.80;52.20;;;;;;4987543;28;91400;-77
2022/03/18 04:55:42;;;;;;;66.47;49.75;;;15.70;52.20;;;;;;4984276;28;89647;-77
2022/03/18 04:58:08;;;;;;;68.32;49.53;;;15.70;52.20;;;;;;4987269;28;96001;-77
2022/03/18 05:00:35;;;;;;;68.65;49.63;;;15.70;52.30;;;;;;4990302;28;88924;-77
2022/03/18 05:03:01;;;;;;;70.07;50.05;;;15.70;52.30;;;;;;4987689;28;92181;-77
2022/03/18 05:05:27;;;;;;;69.22;50.08;;;15.70;52.30;;;;;;5012004;27;91872;-77
2022/03/18 05:07:52;;;;;;;70.55;50.03;;;15.70;52.20;;;;;;4986176;28;91201;-77
2022/03/18 05:10:19;;;;;;;69.72;50.03;;;15.70;52.40;;;;;;4988215;28;89817;-77
2022/03/18 05:12:45;;;;;;;67.55;50.30;;;15.70;52.40;;;;;;4981642;28;92059;-77
2022/03/18 05:15:12;;;;;;;68.25;50.03;;;15.70;52.40;;;;;;4986417;28;90094;-77
2022/03/18 05:17:47;;;;;;;68.57;50.38;;;15.70;52.40;;;;;;4991491;28;90338;-77
2022/03/18 05:20:13;;;;;;;68.82;50.15;;;15.80;52.70;;;;;;4992424;28;89463;-78
2022/03/18 05:22:39;;;;;;;68.50;50.05;;;15.90;52.80;;;;;;4985108;28;94963;-77
2022/03/18 05:25:05;;;;;;;68.10;49.97;;;15.90;52.70;;;;;;4987437;28;91541;-77
2022/03/18 05:27:30;;;;;;;68.82;49.88;;;16.00;52.40;;;;;;4980363;28;95279;-77
2022/03/18 05:29:56;;;;;;;69.10;50.17;;;16.10;52.40;;;;;;4985423;28;90281;-76
2022/03/18 05:32:21;;;;;;;69.47;50.10;;;16.10;52.30;;;;;;4992233;28;91249;-76
2022/03/18 05:34:47;;;;;;;67.43;49.85;;;16.20;52.40;;;;;;4987704;28;92982;-76
2022/03/18 06:16:42;;;;;;;;;;;17.00;51.70;;;;;;3282427;28;94582;-74
2022/03/18 06:19:09;;;;;;;75.18;51.75;;;17.00;51.50;;;;;;4981476;28;90688;-73
2022/03/18 06:21:34;;;;;;;74.80;51.83;;;17.10;51.60;;;;;;4978285;28;91463;-73
2022/03/18 06:24:00;;;;;;;77.18;52.65;;;17.10;51.20;;;;;;4979955;28;89309;-73
2022/03/18 06:26:26;;;;;;;72.43;52.03;;;17.10;51.10;;;;;;4987512;28;89647;-73
2022/03/18 06:28:51;;;;;;;72.43;51.47;;;17.10;51.40;;;;;;5007030;27;89876;-74
2022/03/18 06:31:17;;;;;;;77.80;52.28;;;17.10;51.30;;;;;;4985547;28;95590;-73
2022/03/18 06:33:46;;;;;;;76.05;51.50;;;17.20;51.30;;;;;;4987501;28;90676;-72
2022/03/18 06:36:12;;;;;;;78.65;52.35;;;17.10;51.20;;;;;;4984341;28;89867;-73
2022/03/18 06:38:38;;;;;;;73.55;51.45;;;17.20;51.10;;;;;;4976639;28;92447;-73
2022/03/18 06:41:04;;;;;;;75.32;52.22;;;17.20;51.00;;;;;;4988112;28;93270;-74
2022/03/18 06:43:30;;;;;;;76.65;51.65;;;17.20;51.00;;;;;;4989075;28;92823;-74
2022/03/18 06:45:56;;;;;;;81.22;52.60;;;17.10;50.70;;;;;;4972456;28;91279;-71
2022/03/18 06:48:21;;;;;;;96.75;56.55;;;17.10;50.80;;;;;;4976191;28;89524;-74
2022/03/18 06:50:48;;;;;;;89.78;56.78;;;17.10;52.00;;;;;;4985754;28;90007;-74
2022/03/18 06:53:14;;;;;;;93.32;56.60;;;17.10;52.00;;;;;;4978307;28;90601;-74
2022/03/18 06:55:39;;;;;;;88.13;56.20;;;17.10;52.50;;;;;;4991753;28;91896;-74
2022/03/18 06:58:05;;;;;;;87.30;56.13;;;17.10;52.60;;;;;;4991426;28;89328;-73
2022/03/18 07:00:30;;;;;;;88.40;54.92;;;17.00;52.40;;;;;;4984837;28;89676;-74
2022/03/18 07:02:56;;;;;;;86.22;54.72;;;17.00;52.40;;;;;;4969802;28;92837;-75
2022/03/18 07:05:22;;;;;;;85.85;54.38;;;17.00;52.20;;;;;;4990670;28;89990;-75
2022/03/18 07:07:48;;;;;;;85.57;53.80;;;17.00;52.00;;;;;;4988604;28;91252;-70
2022/03/18 07:10:14;;;;;;;91.65;55.63;;;17.00;51.80;;;;;;4990717;28;91569;-75
2022/03/18 07:12:40;;;;;;;85.75;54.35;;;17.00;52.50;;;;;;4986814;28;90099;-75
2022/03/18 07:15:09;;;;;;;90.55;55.60;;;17.00;52.70;;;;;;4996128;27;90339;-76
2022/03/18 07:20:22;;;;;;;86.00;54.08;;;17.00;53.30;;;;;;4989388;28;90410;-77
2022/03/18 07:22:58;;;;;;;81.93;54.00;;;17.00;52.90;;;;;;4978330;28;90731;-74
2022/03/18 07:25:24;;;;;;;81.85;54.13;;;17.00;52.90;;;;;;4984860;28;89657;-74
2022/03/18 07:27:50;;;;;;;83.65;53.97;;;17.00;52.80;;;;;;4975086;27;90212;-73
2022/03/18 07:30:15;;;;;;;84.05;53.40;;;17.00;52.80;;;;;;4977634;28;92996;-73
2022/03/18 07:32:41;;;;;;;83.22;53.40;;;17.00;52.80;;;;;;4974438;28;90702;-74
2022/03/18 07:35:07;;;;;;;80.45;53.72;;;17.00;52.70;;;;;;4978458;28;89713;-74
2022/03/18 07:37:33;;;;;;;84.57;53.60;;;17.10;52.60;;;;;;4981948;28;88807;-73
2022/03/18 07:39:59;;;;;;;80.53;53.22;;;17.10;52.40;;;;;;4976882;28;91734;-74
2022/03/18 07:42:24;;;;;;;80.80;53.50;;;17.10;52.30;;;;;;4977931;27;90327;-73
2022/03/18 07:44:50;;;;;;;101.38;55.20;;;17.20;52.40;;;;;;5001571;27;91046;-73
2022/03/18 07:47:17;;;;;;;87.90;53.47;;;17.20;52.30;;;;;;4988660;28;89768;-74
2022/03/18 07:49:42;;;;;;;86.13;53.75;;;17.30;52.50;;;;;;4979099;28;90508;-73
2022/03/18 07:52:08;;;;;;;79.70;53.25;;;17.30;52.30;;;;;;4982883;28;99773;-73
2022/03/18 07:54:33;;;;;;;85.57;54.13;;;17.50;52.00;;;;;;4981574;28;93546;-73
2022/03/18 07:56:59;;;;;;;81.60;54.05;;;17.60;51.70;;;;;;4981580;28;92454;-72
2022/03/18 07:59:25;;;;;;;81.88;53.97;;;17.70;51.40;;;;;;4978049;28;95349;-73
2022/03/18 08:01:50;;;;;;;81.68;53.20;;;17.80;51.10;;;;;;4984898;28;90648;-72
2022/03/18 08:04:16;;;;;;;83.07;53.22;;;17.90;50.80;;;;;;4980786;28;91474;-75
2022/03/18 08:06:43;;;;;;;84.78;53.70;;;18.00;50.60;;;;;;4991992;28;90303;-74
2022/03/18 08:09:09;;;;;;;77.60;53.05;;;18.00;50.40;;;;;;4967311;28;94467;-74
2022/03/18 08:11:35;;;;;;;77.82;53.10;;;18.10;50.20;;;;;;4978101;28;93606;-73
2022/03/18 08:14:01;;;;;;;81.38;52.85;;;18.20;50.10;;;;;;4983465;28;90703;-73
2022/03/18 08:16:27;;;;;;;77.43;53.25;;;18.20;49.90;;;;;;4992927;28;89382;-70
2022/03/18 08:18:56;;;;;;;79.93;53.38;;;18.30;49.90;;;;;;4982360;28;91585;-74
2022/03/18 08:21:23;;;;;;;75.90;52.83;;;18.30;49.80;;;;;;4993382;28;90280;-74
2022/03/18 08:23:49;;;;;;;78.07;52.58;;;18.40;49.70;;;;;;4987583;28;94308;-74
2022/03/18 08:26:15;;;;;;;77.20;52.65;;;18.40;49.70;;;;;;4984876;28;89540;-72
2022/03/18 08:28:43;;;;;;;81.45;52.90;;;18.50;49.70;;;;;;4988176;28;90396;-75
2022/03/18 08:31:12;;;;;;;79.80;52.63;;;18.50;49.60;;;;;;4985649;27;90818;-72
2022/03/18 08:33:47;;;;;;;77.93;52.45;;;18.60;49.70;;;;;;4994144;28;90886;-72
2022/03/18 08:36:15;;;;;;;80.82;52.30;;;18.60;49.50;;;;;;4988300;28;89871;-76
2022/03/18 08:38:44;;;;;;;74.57;51.78;;;18.60;49.40;;;;;;4988830;28;90960;-75
2022/03/18 08:41:13;;;;;;;75.88;52.20;;;18.60;49.40;;;;;;4987145;28;90403;-72
2022/03/18 08:43:39;;;;;;;74.47;51.60;;;18.70;49.30;;;;;;4984040;28;96864;-75
2022/03/18 08:46:05;;;;;;;78.15;52.05;;;18.70;49.30;;;;;;4988789;28;90016;-76
2022/03/18 08:48:31;;;;;;;76.05;51.80;;;18.70;49.80;;;;;;4986019;28;93095;-71
2022/03/18 08:50:58;;;;;;;80.93;51.65;;;18.70;49.20;;;;;;4983157;27;98810;-76
2022/03/18 08:53:24;;;;;;;75.80;51.58;;;18.80;49.20;;;;;;4980697;28;89732;-72
2022/03/18 08:55:49;;;;;;;79.20;51.88;;;18.80;49.80;;;;;;5006465;27;90066;-73
2022/03/18 08:58:15;;;;;;;75.63;51.63;;;18.80;49.10;;;;;;4985332;28;95363;-74
2022/03/18 09:00:41;;;;;;;73.93;51.50;;;18.80;49.00;;;;;;4975086;28;91852;-76
2022/03/18 09:03:10;;;;;;;74.55;51.30;;;18.80;48.90;;;;;;4970674;28;91222;-77
2022/03/18 09:05:36;;;;;;;74.50;51.03;;;18.80;48.90;;;;;;4979407;28;90303;-75
2022/03/18 09:08:04;;;;;;;75.18;51.10;;;18.80;48.80;;;;;;4985187;28;89726;-76
2022/03/18 09:10:31;;;;;;;79.88;51.63;;;18.90;48.50;;;;;;4980639;28;90858;-77
2022/03/18 09:13:00;;;;;;;77.57;51.53;;;18.80;48.60;;;;;;4977878;28;92883;-71
2022/03/18 09:15:26;;;;;;;74.95;51.05;;;18.90;48.60;;;;;;4981796;28;90989;-76
2022/03/18 09:17:52;;;;;;;75.13;51.35;;;19.00;48.50;;;;;;4980701;28;90146;-73
2022/03/18 09:20:18;;;;;;;76.03;51.45;;;18.90;48.40;;;;;;4979280;28;90591;-73
2022/03/18 09:22:44;;;;;;;76.80;50.72;;;18.90;48.40;;;;;;4995442;28;92024;-74
2022/03/18 09:25:14;;;;;;;75.18;50.90;;;19.00;48.90;;;;;;4984365;28;96279;-72
2022/03/18 09:27:40;;;;;;;75.68;51.13;;;19.00;49.20;;;;;;4983291;28;92098;-73
2022/03/18 09:30:08;;;;;;;78.15;51.00;;;19.10;49.10;;;;;;4980787;28;94663;-71
2022/03/18 09:32:33;;;;;;;75.47;50.65;;;19.10;48.80;;;;;;4991210;28;90608;-72
2022/03/18 09:35:02;;;;;;;77.45;51.25;;;19.10;48.80;;;;;;4993980;28;92482;-72
2022/03/18 09:37:27;;;;;;;72.00;50.80;;;19.10;48.80;;;;;;4998684;28;89843;-70
2022/03/18 09:39:53;;;;;;;78.45;51.25;;;19.20;48.80;;;;;;4985698;28;90394;-75
2022/03/18 09:42:19;;;;;;;74.05;51.03;;;19.20;49.40;;;;;;4996453;28;95191;-72
2022/03/18 09:44:45;;;;;;;73.93;51.05;;;19.30;49.80;;;;;;4993365;28;90195;-71
2022/03/18 09:47:11;;;;;;;74.38;50.97;;;19.30;49.50;;;;;;4989499;28;91344;-72
2022/03/18 09:49:37;;;;;;;79.13;51.25;;;19.30;49.10;;;;;;4980959;27;92183;-71
2022/03/18 09:52:04;;;;;;;76.20;50.80;;;19.40;48.90;;;;;;4992115;28;90482;-70
2022/03/18 09:54:32;;;;;;;72.60;50.85;;;19.40;48.60;;;;;;4989618;28;89566;-72
2022/03/18 09:56:59;;;;;;;74.18;51.00;;;19.40;48.40;;;;;;5000872;28;90504;-70
2022/03/18 09:59:27;;;;;;;77.65;50.97;;;19.40;48.20;;;;;;4995676;28;91353;-73
2022/03/18 10:02:26;;;;;;;74.45;50.85;;;19.40;48.00;;;;;;4991885;28;91957;-72
2022/03/18 10:05:08;;;;;;;74.68;50.92;;;19.50;47.80;;;;;;4992131;28;96280;-70
2022/03/18 10:07:34;;;;;;;78.60;50.78;;;19.40;48.10;;;;;;4990250;28;90284;-71
2022/03/18 10:10:05;;;;;;;76.57;51.30;;;19.40;47.90;;;;;;4992686;28;90689;-72
2022/03/18 10:12:38;;;;;;;72.07;50.70;;;19.40;48.00;;;;;;4989022;28;90585;-71
2022/03/18 10:15:06;;;;;;;72.43;50.60;;;19.50;47.80;;;;;;4987141;28;90080;-73
2022/03/18 10:17:52;;;;;;;73.97;50.70;;;19.50;47.60;;;;;;4981949;28;89940;-72
2022/03/18 10:20:34;;;;;;;72.35;50.67;;;19.40;47.20;;;;;;4976083;27;93779;-72
2022/03/18 10:23:15;;;;;;;73.10;50.95;;;19.50;47.10;;;;;;4984893;28;90145;-73
2022/03/18 10:25:51;;;;;;;71.25;50.65;;;19.40;46.60;;;;;;4983778;28;89596;-73
2022/03/18 10:28:41;;;;;;;74.28;50.97;;;19.50;46.20;;;;;;4985307;28;90690;-73
2022/03/18 10:31:16;;;;;;;73.10;51.03;;;19.50;45.70;;;;;;4985529;28;89555;-72
2022/03/18 10:37:05;;;;;;;72.40;50.55;;;19.50;45.50;;;;;;4977976;28;90629;-72
2022/03/18 10:39:33;;;;;;;76.25;50.70;;;19.50;45.30;;;;;;4986247;28;96872;-71
2022/03/18 10:42:09;;;;;;;72.70;50.85;;;19.50;45.10;;;;;;4978681;28;90942;-73
2022/03/18 10:44:44;;;;;;;77.55;50.72;;;19.40;45.10;;;;;;4985932;28;90367;-71
2022/03/18 10:47:27;;;;;;;72.75;50.85;;;19.40;45.20;;;;;;4985583;28;94633;-70
2022/03/18 10:50:14;;;;;;;73.57;50.47;;;19.50;45.30;;;;;;4981407;28;92257;-71
2022/03/18 10:52:49;;;;;;;72.32;50.45;;;19.40;45.30;;;;;;4965662;28;90212;-73
2022/03/18 10:55:22;;;;;;;79.38;51.25;;;19.50;46.00;;;;;;4986856;27;91007;-74
2022/03/18 10:58:19;;;;;;;74.82;50.58;;;19.50;45.60;;;;;;4989594;28;90455;-74
2022/03/18 11:00:48;;;;;;;76.93;51.13;;;19.60;45.90;;;;;;4966773;28;92771;-74
2022/03/18 11:03:14;;;;;;;78.80;50.75;;;19.60;46.00;;;;;;4959700;28;91060;-73
2022/03/18 11:05:52;;;;;;;75.45;51.33;;;19.60;46.10;;;;;;4960082;28;92807;-76
2022/03/18 11:08:24;;;;;;;74.50;51.10;;;19.70;47.40;;;;;;4977679;27;90297;-75
2022/03/18 11:11:14;;;;;;;;;;;19.70;48.20;;;;;;4995600;27;90626;-75
2022/03/18 11:13:48;;;;;;;73.88;50.65;;;19.70;47.50;;;;;;4996069;28;89871;-75
2022/03/18 11:16:21;;;;;;;75.30;50.90;;;19.80;47.20;;;;;;4984896;28;90115;-76
2022/03/18 11:18:48;;;;;;;73.50;50.90;;;19.80;46.90;;;;;;4989563;28;90767;-74
2022/03/18 11:21:16;;;;;;;75.68;51.17;;;19.90;46.90;;;;;;4977823;27;91588;-72
2022/03/18 11:23:45;;;;;;;75.75;51.35;;;19.90;46.70;;;;;;4988030;28;90122;-74
2022/03/18 11:26:14;;;;;;;77.03;50.80;;;19.90;46.30;;;;;;4985251;28;89962;-74
2022/03/18 11:28:40;;;;;;;74.85;50.85;;;19.90;46.30;;;;;;4975201;28;90247;-75
2022/03/18 11:31:16;;;;;;;76.68;50.75;;;19.90;46.20;;;;;;4975275;28;97009;-75
2022/03/18 11:34:12;;;;;;;73.93;50.60;;;19.90;46.00;;;;;;4990808;28;91842;-75
2022/03/18 11:37:03;;;;;;;73.63;50.80;;;19.90;46.00;;;;;;4987766;28;90003;-75
2022/03/18 11:39:29;;;;;;;;;;;19.90;46.00;;;;;;4983514;28;90735;-74
2022/03/18 11:42:03;;;;;;;74.00;50.72;;;19.90;46.60;;;;;;4990554;28;90184;-74
2022/03/18 11:44:38;;;;;;;73.07;51.05;;;19.90;45.80;;;;;;4980996;28;91102;-75
2022/03/18 11:47:23;;;;;;;75.82;51.10;;;19.90;45.90;;;;;;4992954;28;89821;-75
2022/03/18 11:49:49;;;;;;;73.07;50.70;;;19.90;46.10;;;;;;4992226;28;90107;-75
2022/03/18 11:52:16;;;;;;;79.90;51.25;;;19.90;46.00;;;;;;4996106;28;91507;-73
2022/03/18 11:55:06;;;;;;;75.80;51.08;;;19.90;46.10;;;;;;4994652;28;90064;-76
2022/03/18 11:57:43;;;;;;;75.43;51.17;;;19.90;46.10;;;;;;4980863;28;91460;-80
2022/03/18 12:00:29;;;;;;;75.85;51.13;;;19.90;46.30;;;;;;4981946;28;91013;-78
2022/03/18 12:02:55;;;;;;;77.38;51.53;;;19.90;46.80;;;;;;4981429;28;91085;-73
2022/03/18 12:05:22;;;;;;;84.80;51.28;;;19.90;47.00;;;;;;4984157;28;92721;-77
2022/03/18 12:07:51;;;;;;;77.45;51.70;;;20.00;46.90;;;;;;4992889;28;91001;-77
2022/03/18 12:10:41;;;;;;;75.03;51.50;;;20.00;46.80;;;;;;4992443;28;90854;-77
2022/03/18 12:13:07;;;;;;;81.55;51.65;;;20.10;46.70;;;;;;4986990;28;90047;-78
2022/03/18 12:15:40;;;;;;;80.50;50.95;;;20.10;46.60;;;;;;4992212;28;90397;-77
2022/03/18 12:18:06;;;;;;;76.78;51.22;;;20.10;46.60;;;;;;4995575;28;90733;-77
2022/03/18 12:20:34;;;;;;;74.72;51.35;;;20.10;46.60;;;;;;4984691;28;95216;-77
2022/03/18 12:23:06;;;;;;;76.55;51.17;;;20.10;46.60;;;;;;4984976;28;92412;-77
2022/03/18 12:25:33;;;;;;;75.75;51.55;;;20.10;46.60;;;;;;5006397;27;91920;-77
2022/03/18 12:27:59;;;;;;;74.78;51.47;;;20.10;46.60;;;;;;4985619;28;90674;-77
2022/03/18 12:30:27;;;;;;;76.10;51.60;;;20.10;46.60;;;;;;4980771;28;90024;-77
2022/03/18 12:33:04;;;;;;;77.80;51.58;;;20.10;46.80;;;;;;4986980;28;91747;-81
2022/03/18 12:35:38;;;;;;;76.55;51.47;;;20.20;47.20;;;;;;4984219;28;92028;-78
2022/03/18 12:38:11;;;;;;;75.88;51.45;;;20.20;47.90;;;;;;4985686;28;90063;-78
2022/03/18 12:40:43;;;;;;;75.35;51.35;;;20.20;48.50;;;;;;4993057;28;88991;-79
2022/03/18 12:43:09;;;;;;;78.43;51.28;;;20.20;48.70;;;;;;4980626;28;92010;-78
2022/03/18 12:45:39;;;;;;;78.78;51.38;;;20.20;49.00;;;;;;4988702;28;93736;-78
2022/03/18 12:48:07;;;;;;;76.55;51.35;;;20.20;49.40;;;;;;4988673;28;90891;-78
2022/03/18 12:50:38;;;;;;;75.82;51.42;;;20.30;50.00;;;;;;4989720;28;89927;-77
2022/03/18 12:53:10;;;;;;;75.45;51.60;;;20.30;50.50;;;;;;4983712;28;91234;-78
2022/03/18 12:55:36;;;;;;;77.45;51.60;;;20.30;51.20;;;;;;4978247;28;90251;-78
2022/03/18 12:58:04;;;;;;;73.75;51.55;;;20.30;51.70;;;;;;4985993;28;89899;-78
2022/03/18 13:00:47;;;;;;;77.22;51.70;;;20.30;51.90;;;;;;4987222;28;90828;-79
2022/03/18 13:03:19;;;;;;;80.78;52.13;;;20.40;52.00;;;;;;4991058;28;91053;-78
2022/03/18 13:05:46;;;;;;;75.15;51.70;;;20.40;51.80;;;;;;4988133;28;89731;-77
2022/03/18 13:08:12;;;;;;;78.40;51.70;;;20.40;51.40;;;;;;4988210;28;90248;-78
2022/03/18 13:10:38;;;;;;;73.15;51.22;;;20.40;51.30;;;;;;4996117;28;90173;-79
2022/03/18 13:13:13;;;;;;;75.18;51.53;;;20.40;50.80;;;;;;4985025;28;92289;-80
2022/03/18 13:15:47;;;;;;;73.88;51.25;;;20.40;50.40;;;;;;4996021;28;91836;-80
2022/03/18 13:18:17;;;;;;;75.53;51.38;;;20.30;50.20;;;;;;5001508;28;91163;-80
2022/03/18 13:20:47;;;;;;;75.97;51.30;;;20.30;50.20;;;;;;4996607;28;90221;-80
2022/03/18 13:23:18;;;;;;;73.63;51.40;;;20.30;50.10;;;;;;4993553;28;93381;-80
2022/03/18 13:25:45;;;;;;;74.90;51.63;;;20.40;50.10;;;;;;4989387;28;93585;-80
2022/03/18 13:28:11;;;;;;;73.53;51.13;;;20.40;50.00;;;;;;4999369;28;90633;-80